createdAt,value
2023-07-08T00:00:50.099Z,19.36
2023-07-08T00:03:24.525Z,19.17
2023-07-08T00:05:57.092Z,19.12
2023-07-08T00:08:25.223Z,19.03
2023-07-08T00:10:53.274Z,19.08
2023-07-08T00:13:21.321Z,19.09
2023-07-08T00:15:49.922Z,19.07
2023-07-08T00:18:19.092Z,19.04
2023-07-08T00:20:50.037Z,19.05
2023-07-08T00:23:23.289Z,19.08
2023-07-08T00:25:51.685Z,19.05
2023-07-08T00:28:22.559Z,18.97
2023-07-08T00:30:50.584Z,18.97
2023-07-08T00:33:18.568Z,19.07
2023-07-08T00:35:47.327Z,18.96
2023-07-08T00:38:16.342Z,19.11
2023-07-08T00:40:53.495Z,19.12
2023-07-08T00:43:25.719Z,19.15
2023-07-08T00:46:12.472Z,19.20
2023-07-08T00:48:41.219Z,19.18
2023-07-08T00:51:14.169Z,19.11
2023-07-08T00:53:42.471Z,18.92
2023-07-08T00:56:31.508Z,18.94
2023-07-08T00:59:10.066Z,18.92
2023-07-08T01:01:43.770Z,18.91
2023-07-08T01:04:21.373Z,18.94
2023-07-08T01:06:58.895Z,18.88
2023-07-08T01:09:34.284Z,18.97
2023-07-08T01:12:06.248Z,18.91
2023-07-08T01:14:37.318Z,18.84
2023-07-08T01:17:06.220Z,18.82
2023-07-08T01:19:34.477Z,18.74
2023-07-08T01:22:07.429Z,18.84
2023-07-08T01:24:39.744Z,18.90
2023-07-08T01:27:13.011Z,18.96
2023-07-08T01:29:41.077Z,18.91
2023-07-08T01:32:15.353Z,18.89
2023-07-08T01:34:43.488Z,18.91
2023-07-08T01:37:13.601Z,18.75
2023-07-08T01:39:41.596Z,18.73
2023-07-08T01:42:09.626Z,18.83
2023-07-08T01:44:38.208Z,18.79
2023-07-08T01:47:20.512Z,18.67
2023-07-08T01:49:50.062Z,18.75
2023-07-08T01:52:19.417Z,18.72
2023-07-08T01:54:56.542Z,18.62
2023-07-08T01:57:24.738Z,18.56
2023-07-08T01:59:52.653Z,18.69
2023-07-08T02:02:20.719Z,18.61
2023-07-08T02:04:48.766Z,18.61
2023-07-08T02:07:17.155Z,18.63
2023-07-08T02:09:45.191Z,18.61
2023-07-08T02:12:13.623Z,18.61
2023-07-08T02:19:36.776Z,18.24
2023-07-08T02:22:05.870Z,18.29
2023-07-08T02:24:33.944Z,18.27
2023-07-08T02:27:02.160Z,18.34
2023-07-08T02:29:30.564Z,18.44
2023-07-08T02:31:58.684Z,18.42
2023-07-08T02:34:26.724Z,18.45
2023-07-08T02:36:54.732Z,18.40
2023-07-08T02:39:23.331Z,18.50
2023-07-08T02:41:51.482Z,18.52
2023-07-08T02:44:19.502Z,18.45
2023-07-08T02:46:47.510Z,18.53
2023-07-08T02:52:00.040Z,18.46
2023-07-08T02:54:28.239Z,18.47
2023-07-08T02:56:56.281Z,18.37
2023-07-08T02:59:24.397Z,18.38
2023-07-08T03:01:52.485Z,18.36
2023-07-08T03:04:23.338Z,18.45
2023-07-08T03:06:52.784Z,18.39
2023-07-08T03:09:20.896Z,18.42
2023-07-08T03:11:48.920Z,18.44
2023-07-08T03:14:17.088Z,18.45
2023-07-08T03:16:45.322Z,18.47
2023-07-08T03:19:16.557Z,18.47
2023-07-08T03:21:44.753Z,18.53
2023-07-08T03:24:13.436Z,18.56
2023-07-08T03:26:48.352Z,18.49
2023-07-08T03:29:19.984Z,18.48
2023-07-08T03:31:49.178Z,18.55
2023-07-08T03:34:18.805Z,18.54
2023-07-08T03:36:51.733Z,18.62
2023-07-08T03:39:25.727Z,18.56
2023-07-08T03:41:54.617Z,18.48
2023-07-08T03:44:22.534Z,18.56
2023-07-08T03:46:51.345Z,18.51
2023-07-08T03:49:25.013Z,18.65
2023-07-08T03:51:55.207Z,18.63
2023-07-08T03:54:25.317Z,18.72
2023-07-08T03:56:55.961Z,18.76
2023-07-08T03:59:26.389Z,18.73
2023-07-08T04:01:56.821Z,18.82
2023-07-08T04:04:26.623Z,18.79
2023-07-08T04:06:56.189Z,18.84
2023-07-08T04:09:24.447Z,18.92
2023-07-08T04:11:52.409Z,19.02
2023-07-08T04:14:20.547Z,18.91
2023-07-08T04:16:55.633Z,18.92
2023-07-08T04:19:24.481Z,18.99
2023-07-08T04:21:52.439Z,19.03
2023-07-08T04:24:20.696Z,19.10
2023-07-08T04:26:50.351Z,19.16
2023-07-08T04:29:23.328Z,19.25
2023-07-08T04:31:54.367Z,19.30
2023-07-08T04:34:22.812Z,19.38
2023-07-08T04:36:51.041Z,19.46
2023-07-08T04:39:19.560Z,19.54
2023-07-08T04:41:47.621Z,19.62
2023-07-08T04:44:16.092Z,19.66
2023-07-08T04:47:02.342Z,19.72
2023-07-08T04:49:33.078Z,19.78
2023-07-08T04:52:01.164Z,19.81
2023-07-08T04:54:30.374Z,19.88
2023-07-08T04:56:58.396Z,19.94
2023-07-08T04:59:27.138Z,19.86
2023-07-08T05:01:55.314Z,19.84
2023-07-08T05:04:24.018Z,19.76
2023-07-08T05:06:52.177Z,19.83
2023-07-08T05:09:20.164Z,19.85
2023-07-08T05:11:48.212Z,19.88
2023-07-08T05:14:16.241Z,20.03
2023-07-08T05:16:44.379Z,20.10
2023-07-08T05:19:12.512Z,20.04
2023-07-08T05:21:40.965Z,20.05
2023-07-08T05:24:09.616Z,20.08
2023-07-08T05:26:37.680Z,20.16
2023-07-08T05:29:06.690Z,20.28
2023-07-08T05:34:06.289Z,20.55
2023-07-08T05:36:34.322Z,20.66
2023-07-08T05:39:02.441Z,20.68
2023-07-08T05:41:30.607Z,20.74
2023-07-08T05:43:58.592Z,20.67
2023-07-08T05:46:26.680Z,20.80
2023-07-08T05:48:55.398Z,20.71
2023-07-08T05:51:23.543Z,20.76
2023-07-08T05:53:51.624Z,20.84
2023-07-08T05:56:19.966Z,20.91
2023-07-08T05:58:48.305Z,20.97
2023-07-08T06:01:16.578Z,21.42
2023-07-08T06:03:45.093Z,22.93
2023-07-08T06:06:13.330Z,24.39
2023-07-08T06:08:42.680Z,25.82
2023-07-08T06:11:10.733Z,27.06
2023-07-08T06:13:38.795Z,28.22
2023-07-08T06:16:06.917Z,29.15
2023-07-08T06:18:35.459Z,29.25
2023-07-08T06:21:04.548Z,30.19
2023-07-08T06:23:32.675Z,29.71
2023-07-08T06:26:00.784Z,28.62
2023-07-08T06:28:28.884Z,29.33
2023-07-08T06:30:56.966Z,30.83
2023-07-08T06:33:25.043Z,31.43
2023-07-08T06:35:53.046Z,31.64
2023-07-08T06:38:21.164Z,32.57
2023-07-08T06:40:49.308Z,32.87
2023-07-08T06:43:17.238Z,32.66
2023-07-08T06:45:51.057Z,33.07
2023-07-08T06:48:18.948Z,33.56
2023-07-08T06:50:50.129Z,33.56
2023-07-08T06:53:18.541Z,33.93
2023-07-08T06:55:47.275Z,34.03
2023-07-08T06:58:15.698Z,32.38
2023-07-08T07:00:47.434Z,30.49
2023-07-08T07:03:16.073Z,28.18
2023-07-08T07:05:45.638Z,27.40
2023-07-08T07:08:13.899Z,26.25
2023-07-08T07:10:42.094Z,25.40
2023-07-08T07:13:10.407Z,24.54
2023-07-08T07:15:38.971Z,24.42
2023-07-08T07:18:07.713Z,24.05
2023-07-08T07:20:39.524Z,24.00
2023-07-08T07:23:07.868Z,23.73
2023-07-08T07:25:36.681Z,23.61
2023-07-08T07:28:06.470Z,23.86
2023-07-08T07:30:35.462Z,23.80
2023-07-08T07:33:04.424Z,23.99
2023-07-08T07:35:33.096Z,23.76
2023-07-08T07:38:01.321Z,23.66
2023-07-08T07:40:29.352Z,23.65
2023-07-08T07:42:57.419Z,23.59
2023-07-08T07:45:25.391Z,23.56
2023-07-08T07:47:53.424Z,23.32
2023-07-08T07:50:21.542Z,23.44
2023-07-08T07:52:49.638Z,23.58
2023-07-08T07:55:17.726Z,23.57
2023-07-08T07:57:47.173Z,23.43
2023-07-08T08:00:15.857Z,23.50
2023-07-08T08:02:46.413Z,23.56
2023-07-08T08:05:14.581Z,23.55
2023-07-08T08:07:42.631Z,23.64
2023-07-08T08:10:11.014Z,23.57
2023-07-08T08:12:52.249Z,23.72
2023-07-08T08:15:23.907Z,23.55
2023-07-08T08:17:53.813Z,23.78
2023-07-08T08:20:25.266Z,23.90
2023-07-08T08:22:53.953Z,23.93
2023-07-08T08:25:24.724Z,23.65
2023-07-08T08:27:53.822Z,23.95
2023-07-08T08:30:21.892Z,23.99
2023-07-08T08:32:50.136Z,23.82
2023-07-08T08:35:18.303Z,23.76
2023-07-08T08:37:46.386Z,23.68
2023-07-08T08:40:20.627Z,23.91
2023-07-08T08:43:03.713Z,23.92
2023-07-08T08:45:49.005Z,24.05
2023-07-08T08:48:21.251Z,24.11
2023-07-08T08:50:57.839Z,23.97
2023-07-08T08:53:28.386Z,24.12
2023-07-08T08:56:04.940Z,24.31
2023-07-08T08:58:45.505Z,24.43
2023-07-08T09:01:17.831Z,24.42
2023-07-08T09:04:00.863Z,24.28
2023-07-08T09:06:35.609Z,24.64
2023-07-08T09:09:20.160Z,24.53
2023-07-08T09:12:03.018Z,24.54
2023-07-08T09:14:35.054Z,24.14
2023-07-08T09:17:17.432Z,24.29
2023-07-08T09:20:07.266Z,24.18
2023-07-08T09:22:45.581Z,24.09
2023-07-08T09:25:17.290Z,23.89
2023-07-08T09:27:47.914Z,24.13
2023-07-08T09:30:20.178Z,24.21
2023-07-08T09:32:49.868Z,24.18
2023-07-08T09:35:25.487Z,23.95
2023-07-08T09:37:54.471Z,23.96
2023-07-08T09:40:34.343Z,24.18
2023-07-08T09:43:18.706Z,24.34
2023-07-08T09:45:49.074Z,24.42
2023-07-08T09:48:22.192Z,24.77
2023-07-08T09:50:53.845Z,24.90
2023-07-08T09:53:22.196Z,24.84
2023-07-08T09:55:52.345Z,24.74
2023-07-08T09:58:27.308Z,24.71
2023-07-08T10:00:59.834Z,24.71
2023-07-08T10:03:35.400Z,24.58
2023-07-08T10:06:07.447Z,24.60
2023-07-08T10:08:44.433Z,24.45
2023-07-08T10:11:37.422Z,24.53
2023-07-08T10:14:15.456Z,24.67
2023-07-08T10:16:45.219Z,24.80
2023-07-08T10:19:17.691Z,24.74
2023-07-08T10:22:05.639Z,24.78
2023-07-08T10:25:05.492Z,24.79
2023-07-08T10:27:56.235Z,24.80
2023-07-08T10:30:30.082Z,24.95
2023-07-08T10:33:20.289Z,24.91
2023-07-08T10:36:07.533Z,24.89
2023-07-08T10:39:03.658Z,25.00
2023-07-08T10:41:46.774Z,24.93
2023-07-08T10:44:35.166Z,24.89
2023-07-08T10:47:35.144Z,24.85
2023-07-08T10:50:10.226Z,24.83
2023-07-08T10:53:03.209Z,24.84
2023-07-08T10:55:53.157Z,24.82
2023-07-08T10:58:52.055Z,24.99
2023-07-08T11:01:41.293Z,25.17
2023-07-08T11:04:15.732Z,25.18
2023-07-08T11:06:57.015Z,25.23
2023-07-08T11:09:50.544Z,25.42
2023-07-08T11:12:37.892Z,25.45
2023-07-08T11:15:21.506Z,25.56
2023-07-08T11:17:53.271Z,25.58
2023-07-08T11:20:58.848Z,25.78
2023-07-08T11:23:33.906Z,25.82
2023-07-08T11:26:31.922Z,25.93
2023-07-08T11:29:04.427Z,25.76
2023-07-08T11:31:35.415Z,25.88
2023-07-08T11:34:05.001Z,25.71
2023-07-08T11:36:35.671Z,25.89
2023-07-08T11:39:04.337Z,25.66
2023-07-08T11:41:33.867Z,25.71
2023-07-08T11:44:07.490Z,25.68
2023-07-08T11:46:36.264Z,25.62
2023-07-08T11:49:13.394Z,25.58
2023-07-08T11:51:46.193Z,25.58
2023-07-08T11:54:16.483Z,25.53
2023-07-08T11:56:56.672Z,25.71
2023-07-08T11:59:32.097Z,25.78
2023-07-08T12:02:15.615Z,25.84
2023-07-08T12:05:12.833Z,26.00
2023-07-08T12:07:44.793Z,26.06
2023-07-08T12:10:19.234Z,26.00
2023-07-08T12:12:47.770Z,26.02
2023-07-08T12:15:24.368Z,25.89
2023-07-08T12:17:54.943Z,25.75
2023-07-08T12:20:27.411Z,25.98
2023-07-08T12:22:55.697Z,25.85
2023-07-08T12:25:27.247Z,25.80
2023-07-08T12:27:55.277Z,25.97
2023-07-08T12:30:23.289Z,26.05
2023-07-08T12:32:52.590Z,26.16
2023-07-08T12:35:26.953Z,26.10
2023-07-08T12:37:59.558Z,25.89
2023-07-08T12:40:30.774Z,26.12
2023-07-08T12:43:03.050Z,26.19
2023-07-08T12:45:32.512Z,26.13
2023-07-08T12:48:00.503Z,26.38
2023-07-08T12:50:28.504Z,26.48
2023-07-08T12:52:57.834Z,26.37
2023-07-08T12:55:26.776Z,26.09
2023-07-08T12:57:56.376Z,26.15
2023-07-08T13:00:33.326Z,25.96
2023-07-08T13:03:08.695Z,25.84
2023-07-08T13:05:36.941Z,25.96
2023-07-08T13:08:05.972Z,25.93
2023-07-08T13:10:36.271Z,26.12
2023-07-08T13:13:08.351Z,26.12
2023-07-08T13:15:43.765Z,25.91
2023-07-08T13:18:18.826Z,25.62
2023-07-08T13:20:53.589Z,25.68
2023-07-08T13:23:23.468Z,25.56
2023-07-08T13:25:53.423Z,25.43
2023-07-08T13:28:29.654Z,25.48
2023-07-08T13:31:04.018Z,25.53
2023-07-08T13:33:34.611Z,25.65
2023-07-08T13:36:05.318Z,25.84
2023-07-08T13:38:36.471Z,25.74
2023-07-08T13:41:10.170Z,25.74
2023-07-08T13:43:41.178Z,25.74
2023-07-08T13:46:37.565Z,25.77
2023-07-08T13:49:22.642Z,25.62
2023-07-08T13:52:09.588Z,25.61
2023-07-08T13:54:42.686Z,25.57
2023-07-08T13:57:13.683Z,25.43
2023-07-08T13:59:41.705Z,25.35
2023-07-08T14:02:24.939Z,25.36
2023-07-08T14:04:54.858Z,24.92
2023-07-08T14:07:30.116Z,24.75
2023-07-08T14:09:59.139Z,24.90
2023-07-08T14:12:27.810Z,24.79
2023-07-08T14:14:56.263Z,24.86
2023-07-08T14:17:26.161Z,24.77
2023-07-08T14:19:55.156Z,24.81
2023-07-08T14:22:29.778Z,24.86
2023-07-08T14:25:05.999Z,24.82
2023-07-08T14:27:34.754Z,24.89
2023-07-08T14:30:04.105Z,24.92
2023-07-08T14:32:34.452Z,24.94
2023-07-08T14:35:28.149Z,24.99
2023-07-08T14:37:57.427Z,25.13
2023-07-08T14:40:28.589Z,25.13
2023-07-08T14:43:07.502Z,25.19
2023-07-08T14:45:48.810Z,25.13
2023-07-08T14:48:17.972Z,25.12
2023-07-08T14:50:46.946Z,25.08
2023-07-08T14:53:17.108Z,25.14
2023-07-08T14:55:49.506Z,25.09
2023-07-08T14:58:26.230Z,24.96
2023-07-08T15:00:58.092Z,24.88
2023-07-08T15:03:28.462Z,24.88
2023-07-08T15:05:57.243Z,24.75
2023-07-08T15:08:25.872Z,24.84
2023-07-08T15:10:54.876Z,24.78
2023-07-08T15:13:30.471Z,24.82
2023-07-08T15:15:59.175Z,24.91
2023-07-08T15:18:27.824Z,24.92
2023-07-08T15:20:56.796Z,24.97
2023-07-08T15:23:26.318Z,24.85
2023-07-08T15:25:55.828Z,24.65
2023-07-08T15:28:49.230Z,24.64
2023-07-08T15:31:26.284Z,24.76
2023-07-08T15:33:55.091Z,24.77
2023-07-08T15:36:23.833Z,24.82
2023-07-08T15:38:53.515Z,24.63
2023-07-08T15:41:28.312Z,24.68
2023-07-08T15:43:58.269Z,24.72
2023-07-08T15:46:34.473Z,24.68
2023-07-08T15:49:17.568Z,24.73
2023-07-08T15:51:49.355Z,24.67
2023-07-08T15:54:20.806Z,24.58
2023-07-08T15:56:52.993Z,24.49
2023-07-08T15:59:26.790Z,24.36
2023-07-08T16:01:55.845Z,24.10
2023-07-08T16:04:33.398Z,24.17
2023-07-08T16:07:02.507Z,24.10
2023-07-08T16:09:30.740Z,24.14
2023-07-08T16:11:58.802Z,24.10
2023-07-08T16:14:27.558Z,24.09
2023-07-08T16:16:56.574Z,24.05
2023-07-08T16:19:24.909Z,24.09
2023-07-08T16:21:52.944Z,24.09
2023-07-08T16:24:21.858Z,24.05
2023-07-08T16:26:50.154Z,24.02
2023-07-08T16:29:18.539Z,24.08
2023-07-08T16:31:47.563Z,24.06
2023-07-08T16:34:15.966Z,23.99
2023-07-08T16:36:44.168Z,23.98
2023-07-08T16:39:12.947Z,23.89
2023-07-08T16:41:41.102Z,23.78
2023-07-08T16:44:16.234Z,23.65
2023-07-08T16:46:45.230Z,23.67
2023-07-08T16:49:13.765Z,23.65
2023-07-08T16:51:42.785Z,23.62
2023-07-08T16:54:10.833Z,23.61
2023-07-08T16:56:41.041Z,23.61
2023-07-08T16:59:10.550Z,23.64
2023-07-08T17:01:39.410Z,23.67
2023-07-08T17:04:13.138Z,23.62
2023-07-08T17:06:42.667Z,23.64
2023-07-08T17:15:11.568Z,23.16
2023-07-08T17:17:48.286Z,23.06
2023-07-08T17:20:41.514Z,23.01
2023-07-08T17:23:14.666Z,23.04
2023-07-08T17:25:43.648Z,22.97
2023-07-08T17:28:12.704Z,23.00
2023-07-08T17:30:47.136Z,22.97
2023-07-08T17:33:16.779Z,22.97
2023-07-08T17:35:47.557Z,22.97
2023-07-08T17:38:23.755Z,22.99
2023-07-08T17:40:53.545Z,23.02
2023-07-08T17:43:23.833Z,23.00
2023-07-08T17:45:54.159Z,23.06
2023-07-08T17:48:26.915Z,23.07
2023-07-08T17:50:55.747Z,23.13
2023-07-08T17:53:24.665Z,23.03
2023-07-08T17:55:54.164Z,23.04
2023-07-08T17:58:22.954Z,22.98
2023-07-08T18:00:52.122Z,23.03
2023-07-08T18:03:20.757Z,23.04
2023-07-08T18:05:49.525Z,23.05
2023-07-08T18:08:18.176Z,23.05
2023-07-08T18:10:46.655Z,23.03
2023-07-08T18:13:23.981Z,22.95
2023-07-08T18:15:52.671Z,22.91
2023-07-08T18:18:21.629Z,22.87
2023-07-08T18:20:54.600Z,22.83
2023-07-08T18:23:25.776Z,22.72
2023-07-08T18:25:54.446Z,22.73
2023-07-08T18:28:23.059Z,22.70
2023-07-08T18:30:54.434Z,22.72
2023-07-08T18:33:23.339Z,22.69
2023-07-08T18:35:51.847Z,22.62
2023-07-08T18:38:20.491Z,22.49
2023-07-08T18:40:49.254Z,22.56
2023-07-08T18:43:21.839Z,22.55
2023-07-08T18:45:51.730Z,22.39
2023-07-08T18:48:22.643Z,22.49
2023-07-08T18:50:56.560Z,22.47
2023-07-08T18:53:25.977Z,22.35
2023-07-08T18:55:55.084Z,22.48
2023-07-08T18:58:23.777Z,22.48
2023-07-08T19:00:53.968Z,22.47
2023-07-08T19:03:25.838Z,22.43
2023-07-08T19:05:55.305Z,22.50
2023-07-08T19:08:24.533Z,22.55
2023-07-08T19:10:56.369Z,22.58
2023-07-08T19:13:28.413Z,22.50
2023-07-08T19:15:57.043Z,22.38
2023-07-08T19:18:25.556Z,22.33
2023-07-08T19:20:54.270Z,22.30
2023-07-08T19:23:27.857Z,22.26
2023-07-08T19:25:57.357Z,22.23
2023-07-08T19:28:26.004Z,22.25
2023-07-08T19:30:57.801Z,22.20
2023-07-08T19:33:26.584Z,22.24
2023-07-08T19:35:57.386Z,22.27
2023-07-08T19:38:26.138Z,22.22
2023-07-08T19:40:54.929Z,22.19
2023-07-08T19:43:23.994Z,22.20
2023-07-08T19:45:52.932Z,22.17
2023-07-08T19:48:21.640Z,22.14
2023-07-08T19:50:51.256Z,22.06
2023-07-08T19:53:19.752Z,21.92
2023-07-08T19:55:48.210Z,21.96
2023-07-08T19:58:17.272Z,21.90
2023-07-08T20:00:47.796Z,21.91
2023-07-08T20:03:17.569Z,21.86
2023-07-08T20:05:46.892Z,21.88
2023-07-08T20:08:31.700Z,21.91
2023-07-08T20:11:00.433Z,21.85
2023-07-08T20:13:32.126Z,21.86
2023-07-08T20:16:12.986Z,21.75
2023-07-08T20:18:41.243Z,21.76
2023-07-08T20:21:10.876Z,21.67
2023-07-08T20:23:40.455Z,21.60
2023-07-08T20:26:31.099Z,21.57
2023-07-08T20:29:00.591Z,21.56
2023-07-08T20:31:30.017Z,21.51
2023-07-08T20:33:59.168Z,21.41
2023-07-08T20:36:29.348Z,21.36
2023-07-08T20:38:58.098Z,21.37
2023-07-08T20:41:26.958Z,21.27
2023-07-08T20:43:58.115Z,21.24
2023-07-08T20:46:28.863Z,21.05
2023-07-08T20:48:59.754Z,21.05
2023-07-08T20:51:28.660Z,21.00
2023-07-08T20:53:57.140Z,20.99
2023-07-08T20:56:30.962Z,20.95
2023-07-08T20:59:01.656Z,20.94
2023-07-08T21:01:33.400Z,20.93
2023-07-08T21:04:02.477Z,20.79
2023-07-08T21:06:33.575Z,20.75
2023-07-08T21:09:03.608Z,20.70
2023-07-08T21:11:32.207Z,20.68
2023-07-08T21:14:02.321Z,20.55
2023-07-08T21:16:31.332Z,20.52
2023-07-08T21:19:00.303Z,20.42
2023-07-08T21:21:28.740Z,20.51
2023-07-08T21:23:57.064Z,20.48
2023-07-08T21:26:28.981Z,20.45
2023-07-08T21:29:00.175Z,20.39
2023-07-08T21:31:29.995Z,20.31
2023-07-08T21:33:58.314Z,20.22
2023-07-08T21:36:36.176Z,20.19
2023-07-08T21:39:32.941Z,20.16
2023-07-08T21:42:01.196Z,20.11
2023-07-08T21:44:29.510Z,20.08
2023-07-08T21:46:57.943Z,19.97
2023-07-08T21:49:25.843Z,20.02
2023-07-08T21:51:53.940Z,19.91
2023-07-08T21:54:22.116Z,19.87
2023-07-08T21:56:50.113Z,19.89
2023-07-08T21:59:22.503Z,19.84
2023-07-08T22:01:51.811Z,19.75
2023-07-08T22:04:21.811Z,19.73
2023-07-08T22:06:50.190Z,19.70
2023-07-08T22:09:18.387Z,19.72
2023-07-08T22:11:46.602Z,19.71
2023-07-08T22:14:14.722Z,19.74
2023-07-08T22:16:45.586Z,19.74
2023-07-08T22:19:15.433Z,19.73
2023-07-08T22:21:43.576Z,19.71
2023-07-08T22:24:11.621Z,19.67
2023-07-08T22:26:42.023Z,19.59
2023-07-08T22:29:10.509Z,19.48
2023-07-08T22:31:42.731Z,19.52
2023-07-08T22:34:14.271Z,19.42
2023-07-08T22:36:42.866Z,19.46
2023-07-08T22:39:12.148Z,19.25
2023-07-08T22:41:53.004Z,19.34
2023-07-08T22:44:21.816Z,19.29
2023-07-08T22:46:50.550Z,19.22
2023-07-08T22:49:27.742Z,19.23
2023-07-08T22:51:58.941Z,19.20
2023-07-08T22:54:29.898Z,18.91
2023-07-08T22:56:58.306Z,18.98
2023-07-08T22:59:26.346Z,18.87
2023-07-08T23:01:54.448Z,18.74
2023-07-08T23:04:22.488Z,18.80
2023-07-08T23:06:50.594Z,18.75
2023-07-08T23:09:19.017Z,18.75
2023-07-08T23:11:47.347Z,18.75
2023-07-08T23:14:15.395Z,18.59
2023-07-08T23:16:43.422Z,18.65
2023-07-08T23:19:14.462Z,18.64
2023-07-08T23:21:42.598Z,18.69
2023-07-08T23:24:10.952Z,18.61
2023-07-08T23:26:42.356Z,18.59
2023-07-08T23:29:18.591Z,18.57
2023-07-08T23:31:47.950Z,18.48
2023-07-08T23:34:16.137Z,18.44
2023-07-08T23:36:47.738Z,18.48
2023-07-08T23:39:28.227Z,18.49
2023-07-08T23:41:57.842Z,18.27
2023-07-08T23:44:28.330Z,18.28
2023-07-08T23:46:59.606Z,18.35
2023-07-08T23:49:34.753Z,18.38
2023-07-08T23:52:03.937Z,18.34
2023-07-08T23:54:35.949Z,18.30
2023-07-08T23:57:07.145Z,18.31
2023-07-08T23:59:40.729Z,18.27
